• Join FlightAware (Why Join?)
  • Login
  • US Flag 
05:40AM EDT


 

Airport Tracker/Info


-or-


 

Live Flight TrackerFlight Track Log ✈ EVA554 ✈ 06-May-2013 ✈ YCFS - YBBN / BNE

Flight Track Log - Related Links

Times and Time Zones

All times are in EDT time to prevent confusion due to time zone crossing. See the EVA554 flight status page for this flight to view local times or setup timezone preferences in your user account.

Time Position Orientation Groundspeed Altitude Reporting Facility
EDT Latitude Longitude Course Direction KTS MPH feet Rate Location/Type
09:45PM -30.3122 153.1172 357° North 16,000  Level Aus ATC (Calculated)
09:45PM -30.2224 153.1128 357° North 16,000 -840 Level Aus ATC (Calculated)
09:46PM -30.2224 153.1128 357° North 16,000 -900 Level Aus ATC (Calculated)
09:47PM -30.1325 153.1084 357° North 16,000 -960 Level Aus ATC (Calculated)
09:47PM -30.1325 153.1084 357° North 16,000 -1,200 Level Aus ATC (Calculated)
09:48PM -30.1325 153.1084 357° North 16,000 -1,260 Level Aus ATC (Calculated)
09:48PM -30.0427 153.1041 356° North 16,000 -1,380 Level Aus ATC (Calculated)
09:50PM -29.9258 153.0984 358° North  Level FlightAware Approximate
09:51PM -29.8348 153.0940 358° North  Level FlightAware Approximate
09:52PM -29.9564 153.0977 358° North 253 291 10,300  Level Aus ATC (RADAR)
09:52PM -29.9202 153.0963 358° North 260 299 10,800 1,080 Climbing Aus ATC (RADAR)
09:53PM -29.8694 153.0933 357° North 255 293 11,600 720 Climbing Aus ATC (RADAR)
09:54PM -29.8262 153.0909 357° North 264 304 11,700 660 Climbing Aus ATC (RADAR)
09:54PM -29.7600 153.0877 358° North 259 298 12,600 780 Climbing Aus ATC (RADAR)
09:55PM -29.6867 153.0836 357° North 262 302 13,300 720 Climbing Aus ATC (RADAR)
09:56PM -29.6376 153.0932 10° North 269 310 13,800 600 Climbing Aus ATC (RADAR)
09:57PM -29.5952 153.1036 12° North 268 308 14,100 480 Climbing Aus ATC (RADAR)
09:58PM -29.5334 153.1184 12° North 272 313 14,500 540 Climbing Aus ATC (RADAR)
09:58PM -29.5024 153.1263 12° North 273 314 14,800 420 Climbing Aus ATC (RADAR)
09:59PM -29.4528 153.1401 14° North 275 316 15,000 540 Climbing Aus ATC (RADAR)
09:59PM -29.4094 153.1523 14° North 271 312 15,500 720 Climbing Aus ATC (RADAR)
10:00PM -29.3605 153.1665 14° North 270 311 15,900 480 Climbing Aus ATC (RADAR)
10:01PM -29.2941 153.1869 15° North 270 311 16,300 180 Climbing Aus ATC (RADAR)
10:01PM -29.2634 153.1974 17° North 275 316 16,200 -120 Descending Aus ATC (RADAR)
10:02PM -29.2187 153.2112 15° North 284 327 16,200  Level Aus ATC (RADAR)
10:03PM -29.1602 153.2283 14° North 289 333 16,200  Level Aus ATC (RADAR)
10:03PM -29.1081 153.2429 14° North 288 331 16,200  Level Aus ATC (RADAR)
10:04PM -29.0495 153.2610 15° North 290 334 16,200  Level Aus ATC (RADAR)
10:04PM -29.0183 153.2708 15° North 281 323 16,200  Level Aus ATC (RADAR)
10:05PM -28.9831 153.2804 13° North 262 302 16,200  Level Aus ATC (RADAR)
10:06PM -28.9224 153.2999 16° North 245 282 16,200  Level Aus ATC (RADAR)
10:06PM -28.8908 153.3106 17° North 237 273 16,200  Level Aus ATC (RADAR)
10:07PM -28.8543 153.3216 15° North 232 267 16,200  Level Aus ATC (RADAR)
10:07PM -28.8182 153.3314 13° North 228 262 16,200  Level Aus ATC (RADAR)
10:08PM -28.7779 153.3447 16° North 226 260 16,200  Level Aus ATC (RADAR)
10:09PM -28.7330 153.3583 15° North 221 254 16,200  Level Aus ATC (RADAR)
10:09PM -28.7079 153.3658 15° North 222 255 16,200  Level Aus ATC (RADAR)
10:10PM -28.6732 153.3757 14° North 220 253 16,200  Level Aus ATC (RADAR)
10:11PM -28.6137 153.3916 13° North 219 252 16,200  Level Aus ATC (RADAR)
10:11PM -28.5837 153.3984 11° North 220 253 16,200  Level Aus ATC (RADAR)
10:12PM -28.5510 153.4123 20° North 215 247 16,200  Level Aus ATC (RADAR)
10:13PM -28.5163 153.4494 43° Northeast 225 259 16,200  Level Aus ATC (RADAR)
10:13PM -28.4890 153.4761 41° Northeast 223 257 16,200  Level Aus ATC (RADAR)
10:14PM -28.4540 153.5115 42° Northeast 224 258 16,200  Level Aus ATC (RADAR)
10:14PM -28.4344 153.5309 41° Northeast 225 259 16,200  Level Aus ATC (RADAR)
10:15PM -28.4073 153.5585 42° Northeast 225 259 16,200  Level Aus ATC (RADAR)
10:16PM -28.3445 153.6209 41° Northeast 227 261 16,200  Level Aus ATC (RADAR)
10:17PM -28.3328 153.6325 41° Northeast 225 259 16,200  Level Aus ATC (RADAR)
10:17PM -28.3052 153.6598 41° Northeast 225 259 16,200  Level Aus ATC (RADAR)
10:18PM -28.2703 153.6946 41° Northeast 223 257 16,200  Level Aus ATC (RADAR)
10:18PM -28.2411 153.7180 35° Northeast 221 254 16,200  Level Aus ATC (RADAR)
10:19PM -28.2045 153.6876 324° Northwest 192 221 16,200  Level Aus ATC (RADAR)
10:20PM -28.1887 153.6698 315° West 190 219 16,200  Level Aus ATC (RADAR)
10:20PM -28.1665 153.6443 315° West 190 219 16,200  Level Aus ATC (RADAR)
10:21PM -28.1367 153.6109 315° West 197 227 16,200  Level Aus ATC (RADAR)
10:21PM -28.1200 153.5927 316° Northwest 196 226 16,200  Level Aus ATC (RADAR)
10:22PM -28.0910 153.5655 320° Northwest 201 231 16,200  Level Aus ATC (RADAR)
10:23PM -28.0446 153.5508 344° North 225 259 16,200  Level Aus ATC (RADAR)
10:23PM -28.0074 153.5365 341° North 238 274 16,200  Level Aus ATC (RADAR)
10:24PM -27.9582 153.5191 343° North 245 282 16,200  Level Aus ATC (RADAR)
10:25PM -27.9308 153.5094 343° North 245 282 16,200  Level Aus ATC (RADAR)
10:25PM -27.8920 153.4956 343° North 248 285 16,200 -120 Level Aus ATC (RADAR)
10:26PM -27.8251 153.4715 342° North 252 290 16,100 -540 Descending Aus ATC (RADAR)
10:27PM -27.7952 153.4606 342° North 266 306 15,500 -1,500 Descending Aus ATC (RADAR)
10:27PM -27.7516 153.4452 343° North 280 322 14,600 -1,440 Descending Aus ATC (RADAR)
10:28PM -27.6957 153.4253 343° North 280 322 13,600 -1,440 Descending Aus ATC (RADAR)
10:29PM -27.6467 153.4072 342° North 278 320 12,600 -1,440 Descending Aus ATC (RADAR)
10:29PM -27.5907 153.3918 346° North 277 319 11,600 -1,440 Descending Aus ATC (RADAR)
10:30PM -27.5593 153.3854 350° North 275 316 11,000 -1,620 Descending Aus ATC (RADAR)
10:30PM -27.5084 153.3739 349° North 280 322 9,900 -1,560 Descending Aus ATC (RADAR)
10:31PM -27.4512 153.3629 350° North 276 318 8,800 -1,560 Descending Aus ATC (RADAR)
10:32PM -27.4198 153.3571 351° North 275 316 8,100 -1,500 Descending Aus ATC (RADAR)
10:32PM -27.3766 153.3500 352° North 269 310 7,300 -1,440 Descending Aus ATC (RADAR)
10:33PM -27.3159 153.3382 350° North 263 303 6,100 -1,560 Descending Aus ATC (RADAR)
10:34PM -27.2712 153.3269 347° North 246 283 5,000 -1,620 Descending Aus ATC (RADAR)
10:35PM -27.2255 153.2814 318° Northwest 235 270 3,600 -1,440 Descending Aus ATC (RADAR)
10:35PM -27.2083 153.2591 311° West 227 261 3,100 -900 Descending Aus ATC (RADAR)
10:36PM -27.2140 153.2214 260° West 211 243 2,700 -480 Descending Aus ATC (RADAR)
10:36PM -27.2540 153.2035 202° Southwest 177 204 2,500 -240 Descending Aus ATC (RADAR)
10:37PM -27.2644 153.1980 205° Southwest 170 196 2,500 -780 Level Aus ATC (RADAR)
10:37PM -27.2896 153.1835 207° Southwest 154 177 1,800 -960 Descending Aus ATC (RADAR)
10:38PM -27.3169 153.1680 207° Southwest 147 169 1,200 -780 Descending Aus ATC (RADAR)
10:39PM -27.3371 153.1559 208° Southwest 140 161 800 -660 Descending Aus ATC (RADAR)
10:39PM -27.3603 153.1431 206° Southwest 125 144 400 -660 Descending Aus ATC (RADAR)
10:40PM -27.3732 153.1358 207° Southwest 125 144 100 -720 Descending Aus ATC (RADAR)